GRVCE EGNJ-EGNX
Flight info
| Callsign | GRVCE |
|---|---|
| Flight time | 0h 18m |
| Altitude | 7000 |
| Route | GAM |
| Aircraft | B350/L-SBGRW/S |
Departure
| Time | 2026-05-04 19:34 |
|---|---|
| Airport | Humberside Airport (EGNJ) |
Arrival
| Time | 2026-05-04 19:52 |
|---|---|
| Airport | East Midlands Airport (EGNX) |
| Time | Latitude | Longitude | Altitude | Speed | Heading |
|---|---|---|---|---|---|
| 2026-05-04 19:22 | 53.58345 | -0.34757 | 76 ft | 0 kts | 291° |
| 2026-05-04 19:31 | 53.58347 | -0.34762 | 71 ft | 3 kts | 315° |
| 2026-05-04 19:31 | 53.58347 | -0.34730 | 70 ft | 7 kts | 144° |
| 2026-05-04 19:32 | 53.58313 | -0.34630 | 71 ft | 13 kts | 112° |
| 2026-05-04 19:32 | 53.58274 | -0.34497 | 71 ft | 10 kts | 158° |
| 2026-05-04 19:32 | 53.58220 | -0.34541 | 77 ft | 0 kts | 203° |
| 2026-05-04 19:33 | 53.58219 | -0.34541 | 77 ft | 2 kts | 202° |
| 2026-05-04 19:33 | 53.57904 | -0.34759 | 85 ft | 101 kts | 201° |
| 2026-05-04 19:33 | 53.57040 | -0.35360 | 242 ft | 154 kts | 201° |
| 2026-05-04 19:34 | 53.56038 | -0.36062 | 876 ft | 158 kts | 201° |
| 2026-05-04 19:34 | 53.55015 | -0.36842 | 1513 ft | 166 kts | 207° |
| 2026-05-04 19:34 | 53.53915 | -0.37585 | 2074 ft | 176 kts | 195° |
| 2026-05-04 19:34 | 53.52676 | -0.38116 | 2404 ft | 194 kts | 201° |
| 2026-05-04 19:35 | 53.51310 | -0.38846 | 2397 ft | 218 kts | 197° |
| 2026-05-04 19:35 | 53.49794 | -0.39581 | 2273 ft | 233 kts | 197° |
| 2026-05-04 19:35 | 53.48203 | -0.40296 | 2272 ft | 236 kts | 197° |
| 2026-05-04 19:35 | 53.46646 | -0.41052 | 2407 ft | 235 kts | 196° |
| 2026-05-04 19:36 | 53.45017 | -0.41556 | 2376 ft | 239 kts | 188° |
| 2026-05-04 19:36 | 53.43353 | -0.41753 | 2395 ft | 239 kts | 184° |
| 2026-05-04 19:36 | 53.41713 | -0.41906 | 2538 ft | 236 kts | 185° |
| 2026-05-04 19:36 | 53.40053 | -0.42138 | 2469 ft | 241 kts | 187° |
| 2026-05-04 19:37 | 53.38391 | -0.42395 | 2529 ft | 239 kts | 184° |
| 2026-05-04 19:37 | 53.36732 | -0.42514 | 2555 ft | 239 kts | 183° |
| 2026-05-04 19:37 | 53.35060 | -0.42605 | 2529 ft | 241 kts | 185° |
| 2026-05-04 19:37 | 53.33409 | -0.43105 | 2514 ft | 242 kts | 194° |
| 2026-05-04 19:38 | 53.31777 | -0.43784 | 2505 ft | 242 kts | 195° |
| 2026-05-04 19:38 | 53.30152 | -0.44512 | 2500 ft | 242 kts | 196° |
| 2026-05-04 19:38 | 53.28528 | -0.45259 | 2496 ft | 242 kts | 196° |
| 2026-05-04 19:38 | 53.26898 | -0.46013 | 2489 ft | 246 kts | 196° |
| 2026-05-04 19:39 | 53.25234 | -0.46786 | 2492 ft | 250 kts | 196° |
| 2026-05-04 19:39 | 53.23546 | -0.47571 | 2495 ft | 253 kts | 196° |
| 2026-05-04 19:39 | 53.21849 | -0.48364 | 2501 ft | 254 kts | 196° |
| 2026-05-04 19:39 | 53.20145 | -0.49160 | 2502 ft | 255 kts | 196° |
| 2026-05-04 19:40 | 53.18437 | -0.49956 | 2502 ft | 255 kts | 196° |
| 2026-05-04 19:40 | 53.16731 | -0.50770 | 2501 ft | 254 kts | 200° |
| 2026-05-04 19:40 | 53.15254 | -0.52335 | 2510 ft | 254 kts | 221° |
| 2026-05-04 19:40 | 53.13932 | -0.54294 | 2500 ft | 255 kts | 223° |
| 2026-05-04 19:41 | 53.12629 | -0.56294 | 2497 ft | 255 kts | 224° |
| 2026-05-04 19:41 | 53.11338 | -0.58312 | 2498 ft | 255 kts | 224° |
| 2026-05-04 19:41 | 53.10049 | -0.60343 | 2499 ft | 255 kts | 224° |
| 2026-05-04 19:41 | 53.08764 | -0.62372 | 2499 ft | 255 kts | 224° |
| 2026-05-04 19:42 | 53.07478 | -0.64399 | 2496 ft | 255 kts | 224° |
| 2026-05-04 19:42 | 53.06190 | -0.66425 | 2501 ft | 255 kts | 224° |
| 2026-05-04 19:42 | 53.04901 | -0.68447 | 2502 ft | 255 kts | 224° |
| 2026-05-04 19:42 | 53.03610 | -0.70467 | 2498 ft | 255 kts | 224° |
| 2026-05-04 19:43 | 53.02317 | -0.72483 | 2500 ft | 255 kts | 224° |
| 2026-05-04 19:43 | 53.01022 | -0.74496 | 2500 ft | 255 kts | 224° |
| 2026-05-04 19:43 | 52.99727 | -0.76505 | 2502 ft | 255 kts | 224° |
| 2026-05-04 19:43 | 52.98430 | -0.78511 | 2499 ft | 255 kts | 224° |
| 2026-05-04 19:44 | 52.97131 | -0.80516 | 2502 ft | 255 kts | 224° |
| 2026-05-04 19:44 | 52.95906 | -0.82619 | 2504 ft | 253 kts | 238° |
| 2026-05-04 19:44 | 52.95081 | -0.85194 | 2502 ft | 253 kts | 244° |
| 2026-05-04 19:44 | 52.94299 | -0.87811 | 2497 ft | 253 kts | 245° |
| 2026-05-04 19:45 | 52.93526 | -0.90439 | 2497 ft | 253 kts | 245° |
| 2026-05-04 19:45 | 52.92761 | -0.93067 | 2500 ft | 253 kts | 245° |
| 2026-05-04 19:45 | 52.91997 | -0.95699 | 2504 ft | 253 kts | 245° |
| 2026-05-04 19:45 | 52.91233 | -0.98329 | 2498 ft | 253 kts | 245° |
| 2026-05-04 19:46 | 52.90470 | -1.00956 | 2500 ft | 253 kts | 245° |
| 2026-05-04 19:46 | 52.89717 | -1.03587 | 2500 ft | 253 kts | 247° |
| 2026-05-04 19:46 | 52.89045 | -1.06279 | 2505 ft | 253 kts | 251° |
| 2026-05-04 19:46 | 52.88446 | -1.08992 | 2501 ft | 253 kts | 252° |
| 2026-05-04 19:47 | 52.87858 | -1.11759 | 2498 ft | 253 kts | 252° |
| 2026-05-04 19:47 | 52.87281 | -1.14509 | 2498 ft | 253 kts | 252° |
| 2026-05-04 19:47 | 52.86706 | -1.17257 | 2504 ft | 253 kts | 252° |
| 2026-05-04 19:47 | 52.86136 | -1.20004 | 2503 ft | 253 kts | 253° |
| 2026-05-04 19:48 | 52.85742 | -1.22729 | 2299 ft | 230 kts | 266° |
| 2026-05-04 19:48 | 52.85695 | -1.25244 | 1961 ft | 211 kts | 275° |
| 2026-05-04 19:48 | 52.85776 | -1.27564 | 1795 ft | 190 kts | 276° |
| 2026-05-04 19:48 | 52.85869 | -1.29727 | 1940 ft | 196 kts | 276° |
| 2026-05-04 19:49 | 52.85980 | -1.32025 | 2135 ft | 201 kts | 274° |
| 2026-05-04 19:49 | 52.86013 | -1.34351 | 2286 ft | 208 kts | 272° |
| 2026-05-04 19:49 | 52.86019 | -1.36763 | 2266 ft | 215 kts | 272° |
| 2026-05-04 19:49 | 52.86020 | -1.38890 | 2297 ft | 151 kts | 267° |
| 2026-05-04 19:50 | 52.85861 | -1.39942 | 2123 ft | 142 kts | 249° |
| 2026-05-04 19:50 | 52.85097 | -1.41085 | 2036 ft | 157 kts | 201° |
| 2026-05-04 19:50 | 52.83985 | -1.41261 | 1854 ft | 166 kts | 179° |
| 2026-05-04 19:50 | 52.83015 | -1.40529 | 1464 ft | 145 kts | 130° |
| 2026-05-04 19:51 | 52.82900 | -1.39052 | 1008 ft | 128 kts | 77° |
| 2026-05-04 19:51 | 52.83008 | -1.37700 | 728 ft | 111 kts | 88° |
| 2026-05-04 19:51 | 52.83034 | -1.36404 | 569 ft | 117 kts | 92° |
| 2026-05-04 19:51 | 52.83051 | -1.35096 | 405 ft | 107 kts | 88° |
| 2026-05-04 19:52 | 52.83081 | -1.33943 | 312 ft | 92 kts | 88° |
| 2026-05-04 19:52 | 52.83093 | -1.33177 | 303 ft | 38 kts | 88° |
| 2026-05-04 19:52 | 52.83100 | -1.32748 | 297 ft | 23 kts | 88° |
| 2026-05-04 19:52 | 52.83059 | -1.32624 | 297 ft | 16 kts | 187° |
| 2026-05-04 19:53 | 52.82996 | -1.32719 | 299 ft | 0 kts | 223° |